createdAt,value
2022-09-01T00:01:27.623Z,9.27
2022-09-01T00:02:59.915Z,8.93
2022-09-01T00:04:32.525Z,8.68
2022-09-01T00:06:10.600Z,9.35
2022-09-01T00:07:42.840Z,9.25
2022-09-01T00:09:17.432Z,8.88
2022-09-01T00:10:49.771Z,8.15
2022-09-01T00:12:23.082Z,8.55
2022-09-01T00:13:56.857Z,9.30
2022-09-01T00:15:28.984Z,9.02
2022-09-01T00:17:03.752Z,9.10
2022-09-01T00:18:36.449Z,8.60
2022-09-01T00:20:09.609Z,8.85
2022-09-01T00:21:44.330Z,9.02
2022-09-01T00:23:16.467Z,9.90
2022-09-01T00:24:48.765Z,8.52
2022-09-01T00:26:21.222Z,9.23
2022-09-01T00:27:53.439Z,8.63
2022-09-01T00:29:26.120Z,8.30
2022-09-01T00:30:59.043Z,8.82
2022-09-01T00:32:31.088Z,8.75
2022-09-01T00:34:03.907Z,8.82
2022-09-01T00:35:37.303Z,8.85
2022-09-01T00:37:09.708Z,9.52
2022-09-01T00:38:41.941Z,8.35
2022-09-01T00:40:16.795Z,9.27
2022-09-01T00:41:51.082Z,9.40
2022-09-01T00:43:56.790Z,9.20
2022-09-01T00:45:31.083Z,8.60
2022-09-01T00:47:03.527Z,8.88
2022-09-01T00:48:36.172Z,9.20
2022-09-01T00:50:11.777Z,9.18
2022-09-01T00:51:48.502Z,8.85
2022-09-01T00:53:20.743Z,9.88
2022-09-01T00:54:55.773Z,8.98
2022-09-01T00:56:28.399Z,8.23
2022-09-01T00:58:02.086Z,8.90
2022-09-01T00:59:35.130Z,8.70
2022-09-01T01:01:09.353Z,8.00
2022-09-01T01:02:42.228Z,9.05
2022-09-01T01:04:17.112Z,8.30
2022-09-01T01:05:54.645Z,8.82
2022-09-01T01:07:27.996Z,8.20
2022-09-01T01:10:36.221Z,8.30
2022-09-01T01:12:12.145Z,8.38
2022-09-01T01:13:54.984Z,8.60
2022-09-01T01:15:27.160Z,8.73
2022-09-01T01:17:00.470Z,9.30
2022-09-01T01:18:32.614Z,8.40
2022-09-01T01:20:24.854Z,8.95
2022-09-01T01:22:15.612Z,10.00
2022-09-01T01:24:25.700Z,9.48
2022-09-01T01:25:59.746Z,9.63
2022-09-01T01:27:42.791Z,8.75
2022-09-01T01:29:16.025Z,10.00
2022-09-01T01:30:53.843Z,10.00
2022-09-01T01:32:26.860Z,9.45
2022-09-01T01:33:59.546Z,9.77
2022-09-01T01:35:32.386Z,9.45
2022-09-01T01:37:04.404Z,9.38
2022-09-01T01:38:37.037Z,9.13
2022-09-01T01:40:15.998Z,9.60
2022-09-01T01:41:51.308Z,8.90
2022-09-01T01:43:24.492Z,9.40
2022-09-01T01:44:56.607Z,9.35
2022-09-01T01:52:58.255Z,8.85
2022-09-01T01:54:32.774Z,8.98
2022-09-01T01:56:06.498Z,8.73
2022-09-01T01:57:50.470Z,9.40
2022-09-01T01:59:25.090Z,8.85
2022-09-01T02:00:58.906Z,8.77
2022-09-01T02:02:31.972Z,8.65
2022-09-01T02:04:06.110Z,7.97
2022-09-01T02:05:38.125Z,9.10
2022-09-01T02:07:12.352Z,8.95
2022-09-01T02:08:44.684Z,8.73
2022-09-01T02:10:17.265Z,8.98
2022-09-01T02:11:52.180Z,8.95
2022-09-01T02:13:28.861Z,9.05
2022-09-01T02:15:01.282Z,8.50
2022-09-01T02:16:34.283Z,8.83
2022-09-01T02:18:06.670Z,8.70
2022-09-01T02:19:42.503Z,8.73
2022-09-01T02:21:19.841Z,8.10
2022-09-01T02:22:55.153Z,8.88
2022-09-01T02:24:31.295Z,9.32
2022-09-01T02:27:35.770Z,8.48
2022-09-01T02:29:18.265Z,9.77
2022-09-01T02:30:55.407Z,9.65
2022-09-01T02:32:27.436Z,9.10
2022-09-01T02:33:59.485Z,8.45
2022-09-01T02:35:32.193Z,9.05
2022-09-01T02:37:04.808Z,8.73
2022-09-01T02:38:36.989Z,8.80
2022-09-01T02:40:11.342Z,8.55
2022-09-01T02:41:43.635Z,8.73
2022-09-01T02:43:19.872Z,8.98
2022-09-01T02:44:51.915Z,9.07
2022-09-01T02:46:24.546Z,9.00
2022-09-01T02:47:57.847Z,8.70
2022-09-01T02:49:30.471Z,8.80
2022-09-01T02:51:08.680Z,8.38
2022-09-01T02:52:40.783Z,8.60
2022-09-01T02:54:17.104Z,8.93
2022-09-01T02:55:49.195Z,9.55
2022-09-01T02:57:25.244Z,8.48
2022-09-01T02:58:57.319Z,9.38
2022-09-01T03:02:13.169Z,9.23
2022-09-01T03:03:45.385Z,8.63
2022-09-01T03:05:25.529Z,8.43
2022-09-01T03:06:59.112Z,7.55
2022-09-01T03:08:36.944Z,8.55
2022-09-01T03:10:10.032Z,8.23
2022-09-01T03:11:47.197Z,8.32
2022-09-01T03:13:23.032Z,8.65
2022-09-01T03:14:55.129Z,9.10
2022-09-01T03:16:27.453Z,9.35
2022-09-01T03:18:01.225Z,8.80
2022-09-01T03:19:44.706Z,8.00
2022-09-01T03:21:17.704Z,9.10
2022-09-01T03:22:51.646Z,8.63
2022-09-01T03:24:23.874Z,8.63
2022-09-01T03:25:56.319Z,8.25
2022-09-01T03:27:28.349Z,9.90
2022-09-01T03:29:00.466Z,8.75
2022-09-01T03:30:34.443Z,8.95
2022-09-01T03:32:06.819Z,8.80
2022-09-01T03:33:39.070Z,8.55
2022-09-01T03:35:12.133Z,8.85
2022-09-01T03:36:50.677Z,7.82
2022-09-01T03:38:24.725Z,7.55
2022-09-01T03:39:58.164Z,8.50
2022-09-01T03:41:31.907Z,9.07
2022-09-01T03:43:06.357Z,9.13
2022-09-01T03:44:40.664Z,8.90
2022-09-01T03:46:18.281Z,8.50
2022-09-01T03:47:50.453Z,8.13
2022-09-01T03:49:28.045Z,8.05
2022-09-01T03:51:03.194Z,7.78
2022-09-01T03:52:35.356Z,8.30
2022-09-01T03:54:07.702Z,8.20
2022-09-01T03:55:40.976Z,8.65
2022-09-01T03:58:47.614Z,8.38
2022-09-01T04:00:23.639Z,9.00
2022-09-01T04:01:57.830Z,8.52
2022-09-01T04:03:32.665Z,8.45
2022-09-01T04:05:08.357Z,9.18
2022-09-01T04:06:43.577Z,8.68
2022-09-01T04:08:15.671Z,8.48
2022-09-01T04:09:47.779Z,7.82
2022-09-01T04:11:24.472Z,7.95
2022-09-01T04:12:59.518Z,8.10
2022-09-01T04:14:31.614Z,8.23
2022-09-01T04:16:11.020Z,7.60
2022-09-01T04:18:09.773Z,8.25
2022-09-01T04:19:43.615Z,8.40
2022-09-01T04:21:15.690Z,7.60
2022-09-01T04:22:49.133Z,8.30
2022-09-01T04:24:24.475Z,8.02
2022-09-01T04:26:01.267Z,8.38
2022-09-01T04:27:34.185Z,8.13
2022-09-01T04:29:09.376Z,7.70
2022-09-01T04:30:42.716Z,7.50
2022-09-01T04:32:21.978Z,8.02
2022-09-01T04:33:54.249Z,7.85
2022-09-01T04:35:28.422Z,8.45
2022-09-01T04:37:00.477Z,8.77
2022-09-01T04:38:33.129Z,7.85
2022-09-01T04:40:05.791Z,8.63
2022-09-01T04:41:43.017Z,8.48
2022-09-01T04:43:15.324Z,8.32
2022-09-01T04:44:49.056Z,9.23
2022-09-01T04:46:21.511Z,8.43
2022-09-01T04:47:54.024Z,9.07
2022-09-01T04:49:27.505Z,8.63
2022-09-01T04:52:32.373Z,8.65
2022-09-01T04:54:08.461Z,8.47
2022-09-01T04:55:45.108Z,8.73
2022-09-01T04:57:17.470Z,8.25
2022-09-01T04:58:56.804Z,8.55
2022-09-01T05:00:32.795Z,9.27
2022-09-01T05:02:09.866Z,8.35
2022-09-01T05:03:42.351Z,8.95
2022-09-01T05:05:15.145Z,8.83
2022-09-01T05:06:51.682Z,9.82
2022-09-01T05:08:24.709Z,8.60
2022-09-01T05:11:33.835Z,8.05
2022-09-01T05:13:10.408Z,8.30
2022-09-01T05:14:44.874Z,8.75
2022-09-01T05:16:25.011Z,8.80
2022-09-01T05:18:02.650Z,8.88
2022-09-01T05:19:35.348Z,8.05
2022-09-01T05:21:11.207Z,8.20
2022-09-01T05:22:43.292Z,8.57
2022-09-01T05:24:19.594Z,7.78
2022-09-01T05:25:56.196Z,8.15
2022-09-01T05:27:29.874Z,8.73
2022-09-01T05:29:04.825Z,8.82
2022-09-01T05:30:40.118Z,8.23
2022-09-01T05:32:13.157Z,8.40
2022-09-01T05:33:46.342Z,9.10
2022-09-01T05:35:19.084Z,8.20
2022-09-01T05:36:52.070Z,8.27
2022-09-01T05:38:25.981Z,8.05
2022-09-01T05:39:58.972Z,7.78
2022-09-01T05:41:31.398Z,7.65
2022-09-01T05:43:03.566Z,8.53
2022-09-01T05:44:36.793Z,8.52
2022-09-01T05:46:08.985Z,8.07
2022-09-01T05:47:42.234Z,8.43
2022-09-01T05:50:50.029Z,8.30
2022-09-01T05:52:26.862Z,9.00
2022-09-01T05:54:02.333Z,8.18
2022-09-01T05:55:38.132Z,8.02
2022-09-01T05:57:33.139Z,8.75
2022-09-01T06:00:59.723Z,9.07
2022-09-01T06:02:34.262Z,8.45
2022-09-01T06:04:06.743Z,8.80
2022-09-01T06:05:38.881Z,7.57
2022-09-01T06:07:16.545Z,8.18
2022-09-01T06:08:52.632Z,7.95
2022-09-01T06:10:25.229Z,8.32
2022-09-01T06:11:57.346Z,8.20
2022-09-01T06:13:29.518Z,8.73
2022-09-01T06:15:03.287Z,8.68
2022-09-01T06:16:36.482Z,8.98
2022-09-01T06:19:44.149Z,8.15
2022-09-01T06:21:17.660Z,8.35
2022-09-01T06:22:50.283Z,8.60
2022-09-01T06:24:22.379Z,7.65
2022-09-01T06:25:55.675Z,7.70
2022-09-01T06:29:03.805Z,7.85
2022-09-01T06:30:36.826Z,7.82
2022-09-01T06:32:13.447Z,8.05
2022-09-01T06:33:46.172Z,8.27
2022-09-01T06:35:18.526Z,7.60
2022-09-01T06:36:53.023Z,7.53
2022-09-01T06:38:30.183Z,7.68
2022-09-01T06:40:03.916Z,7.90
2022-09-01T06:41:38.151Z,7.97
2022-09-01T06:43:12.825Z,7.95
2022-09-01T06:44:46.371Z,7.25
2022-09-01T06:46:20.395Z,7.82
2022-09-01T06:47:57.625Z,8.40
2022-09-01T06:49:35.289Z,8.23
2022-09-01T06:51:19.651Z,8.13
2022-09-01T06:54:58.142Z,7.88
2022-09-01T06:58:08.883Z,8.07
2022-09-01T06:59:41.068Z,8.30
2022-09-01T07:01:17.004Z,8.30
2022-09-01T07:02:55.146Z,8.20
2022-09-01T07:04:29.849Z,7.85
2022-09-01T07:06:06.181Z,8.27
2022-09-01T07:07:54.295Z,8.25
2022-09-01T07:13:25.725Z,8.18
2022-09-01T07:18:57.990Z,7.35
2022-09-01T07:20:31.793Z,7.72
2022-09-01T07:22:07.004Z,7.57
2022-09-01T07:24:05.884Z,7.72
2022-09-01T07:26:00.376Z,7.03
2022-09-01T07:29:23.108Z,7.70
2022-09-01T07:30:56.857Z,8.00
2022-09-01T07:32:47.334Z,7.60
2022-09-01T07:36:29.070Z,7.65
2022-09-01T07:38:48.480Z,7.60
2022-09-01T07:39:56.461Z,7.80
2022-09-01T07:43:27.295Z,7.72
2022-09-01T07:49:29.296Z,8.25
2022-09-01T07:52:50.220Z,7.90
2022-09-01T07:54:24.425Z,8.00
2022-09-01T07:55:57.626Z,7.57
2022-09-01T07:59:02.618Z,8.13
2022-09-01T08:00:35.653Z,7.50
2022-09-01T08:02:08.298Z,7.75
2022-09-01T08:03:41.708Z,8.07
2022-09-01T08:05:18.328Z,7.65
2022-09-01T08:06:50.518Z,6.95
2022-09-01T08:08:27.927Z,7.18
2022-09-01T08:10:01.955Z,6.88
2022-09-01T08:12:01.708Z,7.28
2022-09-01T08:13:29.095Z,6.88
2022-09-01T08:15:37.939Z,7.30
2022-09-01T08:16:58.638Z,6.68
2022-09-01T08:18:48.144Z,6.47
2022-09-01T08:20:22.631Z,6.68
2022-09-01T08:21:54.966Z,6.45
2022-09-01T08:23:27.618Z,6.10
2022-09-01T08:25:00.015Z,5.63
2022-09-01T08:26:33.035Z,6.03
2022-09-01T08:28:05.926Z,5.75
2022-09-01T08:29:38.121Z,6.18
2022-09-01T08:31:13.320Z,5.45
2022-09-01T08:34:22.253Z,6.00
2022-09-01T08:35:54.541Z,5.57
2022-09-01T08:37:27.045Z,6.05
2022-09-01T08:38:59.306Z,5.30
2022-09-01T08:40:31.843Z,4.97
2022-09-01T08:42:27.101Z,5.15
2022-09-01T08:44:30.229Z,5.70
2022-09-01T08:46:10.933Z,5.47
2022-09-01T08:48:04.719Z,5.40
2022-09-01T08:49:44.528Z,5.45
2022-09-01T08:51:45.782Z,5.70
2022-09-01T08:53:40.758Z,5.95
2022-09-01T08:55:26.192Z,5.95
2022-09-01T08:57:02.677Z,6.65
2022-09-01T08:58:35.541Z,6.50
2022-09-01T09:00:11.741Z,6.18
2022-09-01T09:02:35.204Z,5.68
2022-09-01T09:04:22.259Z,6.18
2022-09-01T09:06:16.008Z,5.57
2022-09-01T09:09:39.248Z,5.70
2022-09-01T09:11:23.780Z,6.38
2022-09-01T09:13:03.007Z,6.05
2022-09-01T09:14:35.453Z,6.20
2022-09-01T09:16:12.311Z,5.63
2022-09-01T09:17:59.509Z,5.97
2022-09-01T09:19:36.261Z,6.20
2022-09-01T09:21:36.607Z,6.20
2022-09-01T09:23:22.291Z,6.03
2022-09-01T09:25:08.444Z,6.10
2022-09-01T09:26:44.751Z,5.72
2022-09-01T09:28:17.413Z,5.70
2022-09-01T09:29:52.795Z,5.80
2022-09-01T09:31:31.357Z,6.50
2022-09-01T09:35:19.839Z,5.50
2022-09-01T09:36:55.354Z,5.72
2022-09-01T09:38:33.293Z,5.78
2022-09-01T09:40:22.631Z,5.70
2022-09-01T09:42:10.004Z,6.25
2022-09-01T09:44:00.660Z,6.30
2022-09-01T09:45:42.481Z,5.95
2022-09-01T09:47:46.080Z,6.00
2022-09-01T09:49:36.320Z,5.57
2022-09-01T09:51:22.498Z,5.88
2022-09-01T09:53:16.343Z,6.28
2022-09-01T09:55:17.974Z,5.93
2022-09-01T09:57:05.514Z,5.90
2022-09-01T09:58:43.345Z,6.03
2022-09-01T10:00:27.027Z,5.88
2022-09-01T10:02:00.581Z,5.95
2022-09-01T10:03:37.730Z,5.72
2022-09-01T10:05:39.033Z,5.95
2022-09-01T10:07:31.829Z,6.00
2022-09-01T10:09:09.692Z,6.57
2022-09-01T10:10:57.512Z,6.38
2022-09-01T10:12:31.343Z,5.97
2022-09-01T10:14:07.462Z,5.82
2022-09-01T10:15:41.314Z,6.20
2022-09-01T10:17:18.934Z,6.45
2022-09-01T10:18:52.882Z,6.00
2022-09-01T10:20:26.769Z,6.60
2022-09-01T10:21:59.226Z,5.82
2022-09-01T10:23:33.310Z,6.50
2022-09-01T10:25:10.071Z,6.43
2022-09-01T10:26:43.621Z,6.32
2022-09-01T10:30:20.746Z,6.40
2022-09-01T10:32:14.888Z,6.10
2022-09-01T10:35:31.107Z,5.90
2022-09-01T10:37:10.218Z,6.50
2022-09-01T10:38:50.410Z,6.05
2022-09-01T10:42:19.607Z,6.50
2022-09-01T10:43:52.504Z,6.68
2022-09-01T10:45:34.174Z,6.60
2022-09-01T10:47:33.990Z,7.32
2022-09-01T10:49:25.222Z,6.25
2022-09-01T10:51:28.867Z,6.32
2022-09-01T10:53:08.533Z,6.65
2022-09-01T10:56:44.284Z,6.00
2022-09-01T11:00:37.304Z,9.40
2022-09-01T11:02:25.982Z,6.45
2022-09-01T11:03:59.279Z,6.38
2022-09-01T11:06:17.709Z,6.85
2022-09-01T11:08:15.222Z,6.20
2022-09-01T11:09:45.141Z,6.65
2022-09-01T11:13:09.187Z,6.85
2022-09-01T11:14:59.526Z,6.43
2022-09-01T11:16:53.408Z,6.65
2022-09-01T11:18:29.210Z,6.38
2022-09-01T11:20:11.095Z,6.50
2022-09-01T11:21:43.696Z,6.30
2022-09-01T11:23:31.876Z,6.63
2022-09-01T11:25:38.593Z,6.38
2022-09-01T11:27:13.804Z,5.90
2022-09-01T11:28:46.628Z,6.60
2022-09-01T11:30:19.833Z,6.75
2022-09-01T11:31:53.003Z,6.30
2022-09-01T11:35:14.245Z,6.47
2022-09-01T11:36:48.563Z,6.75
2022-09-01T11:38:21.525Z,6.80
2022-09-01T11:39:56.745Z,6.60
2022-09-01T11:41:34.337Z,6.75
2022-09-01T11:43:16.828Z,6.32
2022-09-01T11:44:54.021Z,5.95
2022-09-01T11:46:30.487Z,6.40
2022-09-01T11:48:08.633Z,7.15
2022-09-01T11:49:49.573Z,6.40
2022-09-01T11:51:21.975Z,6.75
2022-09-01T11:53:04.511Z,6.63
2022-09-01T11:54:41.506Z,7.25
2022-09-01T11:56:20.822Z,7.05
2022-09-01T11:57:53.370Z,6.55
2022-09-01T11:59:34.005Z,6.75
2022-09-01T12:01:20.613Z,6.25
2022-09-01T12:02:55.354Z,6.78
2022-09-01T12:04:37.318Z,6.82
2022-09-01T12:06:12.244Z,6.97
2022-09-01T12:07:46.719Z,6.53
2022-09-01T12:09:19.515Z,6.25
2022-09-01T12:10:52.124Z,6.57
2022-09-01T12:12:32.568Z,6.90
2022-09-01T12:14:11.430Z,6.32
2022-09-01T12:16:06.919Z,6.72
2022-09-01T12:17:37.685Z,6.38
2022-09-01T12:19:26.590Z,6.50
2022-09-01T12:21:00.722Z,6.85
2022-09-01T12:22:33.106Z,6.18
2022-09-01T12:24:23.433Z,7.32
2022-09-01T12:25:58.360Z,6.88
2022-09-01T12:27:30.767Z,6.57
2022-09-01T12:29:03.290Z,6.50
2022-09-01T12:30:40.113Z,6.38
2022-09-01T12:32:13.042Z,6.70
2022-09-01T12:33:46.167Z,7.00
2022-09-01T12:35:23.443Z,5.93
2022-09-01T12:37:09.854Z,6.70
2022-09-01T12:38:42.251Z,6.43
2022-09-01T12:40:43.745Z,6.38
2022-09-01T12:42:21.879Z,6.47
2022-09-01T12:43:54.949Z,6.80
2022-09-01T12:45:48.395Z,7.45
2022-09-01T12:47:38.227Z,6.65
2022-09-01T12:49:28.565Z,6.75
2022-09-01T12:51:26.535Z,6.57
2022-09-01T12:53:05.843Z,6.60
2022-09-01T12:54:38.711Z,7.07
2022-09-01T12:56:29.018Z,6.65
2022-09-01T12:58:04.205Z,5.28
2022-09-01T12:59:37.429Z,5.57
2022-09-01T13:01:25.443Z,5.32
2022-09-01T13:04:50.272Z,5.50
2022-09-01T13:06:22.600Z,5.15
2022-09-01T13:08:00.001Z,5.20
2022-09-01T13:09:32.875Z,5.40
2022-09-01T13:11:13.968Z,4.85
2022-09-01T13:12:46.336Z,5.47
2022-09-01T13:14:19.427Z,5.07
2022-09-01T13:19:12.869Z,5.32
2022-09-01T13:20:45.334Z,5.43
2022-09-01T13:22:17.681Z,5.75
2022-09-01T13:23:51.034Z,5.72
2022-09-01T13:25:24.670Z,5.60
2022-09-01T13:28:51.422Z,5.53
2022-09-01T13:35:42.685Z,6.30
2022-09-01T13:37:15.679Z,6.45
2022-09-01T13:38:50.649Z,5.55
2022-09-01T13:40:27.484Z,6.13
2022-09-01T13:41:59.838Z,6.55
2022-09-01T13:43:32.540Z,6.07
2022-09-01T13:45:07.457Z,6.18
2022-09-01T13:50:28.158Z,5.95
2022-09-01T13:52:20.321Z,6.50
2022-09-01T13:53:53.380Z,5.53
2022-09-01T13:57:02.037Z,6.07
2022-09-01T13:58:34.409Z,6.18
2022-09-01T14:00:11.283Z,5.75
2022-09-01T14:01:43.877Z,6.35
2022-09-01T14:03:21.720Z,6.05
2022-09-01T14:04:54.138Z,6.65
2022-09-01T14:06:26.748Z,6.05
2022-09-01T14:08:00.214Z,6.60
2022-09-01T14:09:32.947Z,5.55
2022-09-01T14:11:05.418Z,6.22
2022-09-01T14:12:38.236Z,5.78
2022-09-01T14:14:10.781Z,5.60
2022-09-01T14:15:45.055Z,5.43
2022-09-01T14:17:17.699Z,5.18
2022-09-01T14:18:49.882Z,6.40
2022-09-01T14:20:25.023Z,5.60
2022-09-01T14:21:57.737Z,6.10
2022-09-01T14:23:30.146Z,5.82
2022-09-01T14:25:02.567Z,5.85
2022-09-01T14:26:35.331Z,6.07
2022-09-01T14:28:07.727Z,6.25
2022-09-01T14:31:12.779Z,6.03
2022-09-01T14:32:45.440Z,5.88
2022-09-01T14:34:19.495Z,5.32
2022-09-01T14:35:51.868Z,5.97
2022-09-01T14:37:24.456Z,5.78
2022-09-01T14:38:56.822Z,5.32
2022-09-01T14:40:29.556Z,5.50
2022-09-01T14:42:02.111Z,5.60
2022-09-01T14:43:34.595Z,5.50
2022-09-01T14:45:07.454Z,5.68
2022-09-01T14:46:40.434Z,5.90
2022-09-01T14:48:13.120Z,5.80
2022-09-01T14:49:45.723Z,5.93
2022-09-01T14:53:34.449Z,5.97
2022-09-01T14:55:07.623Z,5.75
2022-09-01T14:56:40.464Z,6.07
2022-09-01T14:58:13.772Z,5.60
2022-09-01T14:59:45.924Z,6.03
2022-09-01T15:01:33.576Z,6.22
2022-09-01T15:03:10.256Z,5.95
2022-09-01T15:04:42.845Z,5.85
2022-09-01T15:06:17.115Z,6.20
2022-09-01T15:07:50.218Z,6.53
2022-09-01T15:10:55.053Z,5.85
2022-09-01T15:12:31.497Z,5.65
2022-09-01T15:14:04.293Z,5.40
2022-09-01T15:15:36.931Z,5.15
2022-09-01T15:17:09.498Z,4.65
2022-09-01T15:18:42.075Z,4.90
2022-09-01T15:20:32.850Z,4.32
2022-09-01T15:22:07.262Z,4.35
2022-09-01T15:23:39.570Z,4.43
2022-09-01T15:25:11.991Z,4.00
2022-09-01T15:26:47.029Z,4.18
2022-09-01T15:28:23.045Z,3.80
2022-09-01T15:29:56.376Z,4.47
2022-09-01T15:31:32.358Z,3.78
2022-09-01T15:33:06.423Z,3.50
2022-09-01T15:34:39.437Z,4.00
2022-09-01T15:36:17.329Z,4.18
2022-09-01T15:37:51.033Z,3.33
2022-09-01T15:39:23.496Z,3.70
2022-09-01T15:40:58.452Z,3.60
2022-09-01T15:42:31.579Z,4.43
2022-09-01T15:44:07.450Z,3.88
2022-09-01T15:45:40.003Z,3.63
2022-09-01T15:47:12.550Z,3.40
2022-09-01T15:48:45.138Z,4.25
2022-09-01T15:50:21.941Z,4.43
2022-09-01T15:51:57.650Z,3.83
2022-09-01T15:53:30.278Z,3.40
2022-09-01T15:55:04.166Z,3.55
2022-09-01T15:56:37.204Z,4.13
2022-09-01T15:58:11.050Z,3.72
2022-09-01T15:59:43.676Z,4.07
2022-09-01T16:01:18.968Z,4.00
2022-09-01T16:04:27.709Z,4.18
2022-09-01T16:06:03.177Z,4.10
2022-09-01T16:07:35.822Z,4.22
2022-09-01T16:09:09.150Z,4.53
2022-09-01T16:10:42.876Z,4.10
2022-09-01T16:12:15.350Z,4.13
2022-09-01T16:13:47.739Z,4.30
2022-09-01T16:15:22.767Z,4.22
2022-09-01T16:17:10.975Z,4.10
2022-09-01T16:18:53.105Z,4.03
2022-09-01T16:21:10.713Z,4.03
2022-09-01T16:22:56.142Z,4.07
2022-09-01T16:24:28.666Z,3.92
2022-09-01T16:26:00.883Z,4.03
2022-09-01T16:27:51.053Z,4.07
2022-09-01T16:29:42.076Z,4.03
2022-09-01T16:31:35.659Z,3.55
2022-09-01T16:33:21.110Z,4.13
2022-09-01T16:34:53.481Z,4.40
2022-09-01T16:38:47.577Z,4.10
2022-09-01T16:40:38.287Z,4.00
2022-09-01T16:42:13.915Z,3.92
2022-09-01T16:44:05.109Z,3.83
2022-09-01T16:46:07.953Z,4.05
2022-09-01T16:47:49.775Z,3.67
2022-09-01T16:49:42.065Z,4.25
2022-09-01T16:51:22.429Z,4.32
2022-09-01T16:53:01.520Z,4.25
2022-09-01T16:54:47.047Z,4.60
2022-09-01T16:56:32.223Z,4.15
2022-09-01T16:58:10.914Z,4.47
2022-09-01T16:59:52.039Z,4.00
2022-09-01T17:01:57.465Z,4.22
2022-09-01T17:03:43.077Z,4.25
2022-09-01T17:05:22.142Z,4.13
2022-09-01T17:07:19.386Z,4.72
2022-09-01T17:08:56.119Z,4.60
2022-09-01T17:10:45.636Z,4.72
2022-09-01T17:12:28.433Z,4.05
2022-09-01T17:14:03.519Z,4.70
2022-09-01T17:15:41.497Z,4.72
2022-09-01T17:17:18.603Z,4.90
2022-09-01T17:18:55.687Z,4.32
2022-09-01T17:20:30.607Z,4.63
2022-09-01T17:22:08.412Z,5.22
2022-09-01T17:23:46.975Z,4.72
2022-09-01T17:25:33.536Z,4.55
2022-09-01T17:27:21.700Z,4.35
2022-09-01T17:29:01.157Z,4.30
2022-09-01T17:30:35.765Z,4.78
2022-09-01T17:32:20.055Z,4.60
2022-09-01T17:34:31.133Z,4.50
2022-09-01T17:36:16.028Z,5.10
2022-09-01T17:38:06.791Z,5.03
2022-09-01T17:39:55.805Z,4.53
2022-09-01T17:41:41.742Z,4.85
2022-09-01T17:43:46.519Z,4.93
2022-09-01T17:45:31.076Z,4.72
2022-09-01T17:47:40.065Z,4.70
2022-09-01T17:49:21.782Z,4.50
2022-09-01T17:51:12.522Z,4.65
2022-09-01T17:53:10.391Z,4.70
2022-09-01T17:54:59.162Z,4.70
2022-09-01T17:56:52.284Z,5.22
2022-09-01T17:58:53.345Z,5.32
2022-09-01T18:00:28.741Z,6.10
2022-09-01T18:03:51.886Z,6.85
2022-09-01T18:05:25.042Z,6.43
2022-09-01T18:08:45.888Z,7.95
2022-09-01T18:10:47.053Z,7.07
2022-09-01T18:12:25.097Z,7.30
2022-09-01T18:14:08.016Z,6.60
2022-09-01T18:15:53.038Z,7.30
2022-09-01T18:17:33.940Z,6.40
2022-09-01T18:19:12.853Z,6.40
2022-09-01T18:20:47.754Z,6.68
2022-09-01T18:22:22.072Z,6.50
2022-09-01T18:24:00.454Z,7.20
2022-09-01T18:25:44.137Z,6.40
2022-09-01T18:28:54.973Z,7.18
2022-09-01T18:30:51.751Z,6.40
2022-09-01T18:32:22.525Z,7.00
2022-09-01T18:34:17.274Z,6.35
2022-09-01T18:36:36.026Z,8.45
2022-09-01T18:38:26.654Z,8.73
2022-09-01T18:40:17.496Z,7.50
2022-09-01T18:42:08.850Z,7.15
2022-09-01T18:43:45.815Z,7.43
2022-09-01T18:45:44.056Z,7.28
2022-09-01T18:47:18.956Z,6.90
2022-09-01T18:49:11.122Z,7.05
2022-09-01T18:51:06.128Z,6.95
2022-09-01T18:52:49.124Z,7.88
2022-09-01T18:54:32.888Z,7.03
2022-09-01T18:56:21.546Z,8.18
2022-09-01T18:57:57.450Z,7.18
2022-09-01T19:00:16.915Z,7.65
2022-09-01T19:02:00.942Z,7.57
2022-09-01T19:03:44.442Z,8.48
2022-09-01T19:05:36.108Z,8.00
2022-09-01T19:07:27.226Z,7.70
2022-09-01T19:23:22.825Z,7.43
2022-09-01T19:25:20.034Z,7.80
2022-09-01T19:27:16.977Z,7.10
2022-09-01T19:29:01.508Z,7.55
2022-09-01T19:30:35.816Z,7.30
2022-09-01T19:32:09.982Z,7.53
2022-09-01T19:33:48.180Z,8.27
2022-09-01T19:35:20.801Z,7.63
2022-09-01T19:36:56.280Z,7.90
2022-09-01T19:38:29.316Z,8.07
2022-09-01T19:40:01.609Z,7.25
2022-09-01T19:42:13.626Z,7.30
2022-09-01T19:43:46.026Z,7.28
2022-09-01T19:45:34.879Z,9.30
2022-09-01T19:47:14.151Z,8.00
2022-09-01T19:48:58.489Z,8.45
2022-09-01T19:50:55.496Z,8.38
2022-09-01T19:52:39.693Z,8.18
2022-09-01T19:54:16.169Z,9.32
2022-09-01T19:56:02.191Z,9.52
2022-09-01T19:57:50.719Z,9.80
2022-09-01T19:59:48.607Z,8.25
2022-09-01T20:01:27.425Z,7.50
2022-09-01T20:03:12.898Z,8.52
2022-09-01T20:05:02.339Z,7.93
2022-09-01T20:06:36.593Z,8.57
2022-09-01T20:08:15.565Z,7.93
2022-09-01T20:09:54.542Z,7.35
2022-09-01T20:11:35.500Z,7.97
2022-09-01T20:13:37.757Z,8.02
2022-09-01T20:15:09.983Z,8.30
2022-09-01T20:16:45.483Z,8.10
2022-09-01T20:18:27.536Z,7.68
2022-09-01T20:20:21.086Z,7.78
2022-09-01T20:21:53.332Z,7.63
2022-09-01T20:23:33.325Z,7.75
2022-09-01T20:25:10.527Z,8.27
2022-09-01T20:27:02.791Z,7.95
2022-09-01T20:29:00.267Z,7.70
2022-09-01T20:30:45.453Z,8.27
2022-09-01T20:32:45.970Z,8.32
2022-09-01T20:34:53.392Z,7.97
2022-09-01T20:36:44.436Z,8.77
2022-09-01T20:39:10.513Z,7.97
2022-09-01T20:40:43.295Z,8.00
2022-09-01T20:42:20.042Z,8.23
2022-09-01T20:43:55.332Z,8.20
2022-09-01T20:45:28.847Z,8.70
2022-09-01T20:47:00.893Z,7.97
2022-09-01T20:48:40.626Z,7.95
2022-09-01T20:50:14.376Z,8.38
2022-09-01T20:52:28.047Z,8.32
2022-09-01T20:54:18.801Z,7.88
2022-09-01T20:56:06.158Z,8.32
2022-09-01T20:58:15.275Z,7.97
2022-09-01T20:59:54.215Z,7.55
2022-09-01T21:01:53.079Z,8.38
2022-09-01T21:03:35.314Z,8.32
2022-09-01T21:05:13.341Z,8.95
2022-09-01T21:07:02.135Z,8.57
2022-09-01T21:08:49.912Z,7.97
2022-09-01T21:10:38.083Z,8.07
2022-09-01T21:12:33.395Z,8.40
2022-09-01T21:14:08.000Z,8.40
2022-09-01T21:16:01.802Z,8.15
2022-09-01T21:17:41.720Z,8.88
2022-09-01T21:19:22.858Z,7.88
2022-09-01T21:21:07.653Z,7.60
2022-09-01T21:22:39.768Z,7.93
2022-09-01T21:24:11.793Z,7.72
2022-09-01T21:25:47.260Z,7.75
2022-09-01T21:27:23.680Z,8.68
2022-09-01T21:28:57.185Z,8.93
2022-09-01T21:30:34.331Z,7.93
2022-09-01T21:32:06.549Z,7.53
2022-09-01T21:33:38.719Z,7.82
2022-09-01T21:35:15.750Z,8.00
2022-09-01T21:36:47.791Z,7.53
2022-09-01T21:38:19.969Z,8.18
2022-09-01T21:39:53.917Z,7.90
2022-09-01T21:41:25.971Z,8.10
2022-09-01T21:43:07.253Z,8.02
2022-09-01T21:44:40.372Z,7.63
2022-09-01T21:46:14.928Z,8.32
2022-09-01T21:47:51.267Z,8.35
2022-09-01T21:49:23.465Z,7.72
2022-09-01T21:50:55.660Z,8.18
2022-09-01T21:52:31.159Z,7.25
2022-09-01T21:54:03.411Z,8.05
2022-09-01T21:55:36.449Z,8.10
2022-09-01T21:57:08.842Z,7.35
2022-09-01T21:58:40.981Z,7.60
2022-09-01T22:00:17.087Z,8.50
2022-09-01T22:01:52.850Z,8.13
2022-09-01T22:03:25.103Z,7.72
2022-09-01T22:04:57.173Z,8.07
2022-09-01T22:06:29.277Z,8.50
2022-09-01T22:08:01.849Z,7.85
2022-09-01T22:09:33.855Z,7.18
2022-09-01T22:11:10.217Z,7.57
2022-09-01T22:12:44.160Z,8.18
2022-09-01T22:14:16.457Z,7.82
2022-09-01T22:15:51.547Z,7.18
2022-09-01T22:17:23.771Z,7.95
2022-09-01T22:18:55.799Z,8.30
2022-09-01T22:22:04.849Z,7.47
2022-09-01T22:23:37.738Z,8.25
2022-09-01T22:25:13.461Z,7.68
2022-09-01T22:26:46.422Z,7.60
2022-09-01T22:28:18.625Z,8.07
2022-09-01T22:29:52.370Z,7.53
2022-09-01T22:31:25.734Z,7.28
2022-09-01T22:32:57.957Z,7.53
2022-09-01T22:34:30.009Z,8.32
2022-09-01T22:36:02.153Z,7.72
2022-09-01T22:37:35.047Z,8.05
2022-09-01T22:39:08.665Z,7.60
2022-09-01T22:40:49.202Z,7.82
2022-09-01T22:42:21.381Z,7.55
2022-09-01T22:43:53.549Z,7.70
2022-09-01T22:45:25.697Z,7.55
2022-09-01T22:46:57.911Z,7.82
2022-09-01T22:48:29.992Z,7.80
2022-09-01T22:50:02.441Z,8.77
2022-09-01T22:51:35.097Z,8.18
2022-09-01T22:53:08.176Z,7.75
2022-09-01T22:54:40.264Z,8.15
2022-09-01T22:56:15.081Z,8.85
2022-09-01T22:57:47.155Z,7.78
2022-09-01T22:59:19.241Z,8.32
2022-09-01T23:00:59.984Z,8.02
2022-09-01T23:02:32.166Z,8.00
2022-09-01T23:04:07.159Z,7.80
2022-09-01T23:05:39.130Z,8.85
2022-09-01T23:07:11.165Z,8.70
2022-09-01T23:08:44.085Z,8.65
2022-09-01T23:10:16.556Z,8.90
2022-09-01T23:11:49.490Z,9.05
2022-09-01T23:13:22.358Z,8.98
2022-09-01T23:14:54.656Z,8.65
2022-09-01T23:16:27.073Z,9.02
2022-09-01T23:17:59.271Z,8.20
2022-09-01T23:19:31.339Z,8.40
2022-09-01T23:21:05.004Z,7.70
2022-09-01T23:22:44.052Z,8.57
2022-09-01T23:24:16.611Z,8.35
2022-09-01T23:25:53.646Z,9.32
2022-09-01T23:27:25.762Z,8.55
2022-09-01T23:28:58.820Z,8.45
2022-09-01T23:30:30.975Z,8.15
2022-09-01T23:32:03.301Z,7.97
2022-09-01T23:33:35.442Z,7.90
2022-09-01T23:35:08.673Z,7.78
2022-09-01T23:38:13.343Z,7.90
2022-09-01T23:39:45.600Z,8.93
2022-09-01T23:41:25.281Z,8.80
2022-09-01T23:42:57.915Z,8.98
2022-09-01T23:44:30.375Z,7.75